Time;durP1;ratioP1;P1;durP2;ratioP2;P2;SDS_P1;SDS_P2;PMS_P1;PMS_P2;Temp;Humidity;BMP_temperature;BMP_pressure;BME280_temperature;BME280_humidity;BME280_pressure;Samples;Min_cycle;Max_cycle;Signal;HPM_P1;HPM_P2
2022/12/22 03:26:56;;;;;;;183.60;66.82;;;;;;;-141.97;100.00;47824.69;5013227;28;20174;-81
2022/12/22 03:29:22;;;;;;;152.60;55.60;;;;;;;-141.97;100.00;47861.22;5013317;28;20159;-81
2022/12/22 03:31:47;;;;;;;123.97;49.47;;;;;;;-141.97;100.00;47836.22;5028207;28;20171;-81
2022/12/22 03:34:13;;;;;;;101.50;40.17;;;;;;;-141.97;100.00;47845.84;5023478;28;20179;-82
2022/12/22 03:36:38;;;;;;;119.03;45.00;;;;;;;-141.97;100.00;47832.38;5020506;28;20178;-82
2022/12/22 03:39:04;;;;;;;112.37;43.10;;;;;;;-141.97;100.00;47830.47;5018722;28;20226;-80
2022/12/22 03:46:57;;;;;;;105.63;40.58;;;;;;;-141.97;100.00;47803.56;5013214;28;20654;-81
2022/12/22 03:49:22;;;;;;;107.90;38.10;;;;;;;-141.97;100.00;47826.63;5023202;28;20167;-81
2022/12/22 03:51:49;;;;;;;106.13;41.70;;;;;;;-141.97;100.00;47815.09;5022694;28;20642;-81
2022/12/22 03:54:18;;;;;;;104.95;39.83;;;;;;;-141.97;100.00;47843.91;5022985;28;20170;-82
2022/12/22 03:56:44;;;;;;;111.25;41.72;;;;;;;-141.97;100.00;47826.63;5016659;28;20699;-82
2022/12/22 03:59:10;;;;;;;118.20;45.57;;;;;;;-141.97;100.00;47838.16;5013870;28;20277;-81
2022/12/22 04:01:47;;;;;;;148.65;53.75;;;;;;;-141.97;100.00;47807.41;5012517;28;20162;-81
2022/12/22 04:04:14;;;;;;;154.57;53.10;;;;;;;-141.97;100.00;47803.56;5012042;28;20167;-81
2022/12/22 04:06:40;;;;;;;139.65;51.38;;;;;;;-141.97;100.00;47832.38;5012101;28;20166;-81
2022/12/22 04:09:06;;;;;;;142.00;49.08;;;;;;;-141.97;100.00;47828.53;5012363;28;20194;-81
2022/12/22 04:14:16;;;;;;;201.52;67.88;;;;;;;-141.97;100.00;47849.69;5012556;28;20558;-81
2022/12/22 04:16:41;;;;;;;263.20;99.63;;;;;;;-141.97;100.00;47866.97;5012255;28;20246;-81
2022/12/22 04:19:07;;;;;;;289.77;105.57;;;;;;;-141.97;100.00;47828.53;5011948;28;20658;-82
2022/12/22 04:21:33;;;;;;;188.30;67.70;;;;;;;-141.97;100.00;47863.13;5018949;28;20252;-81
2022/12/22 04:23:58;;;;;;;151.30;55.90;;;;;;;-141.97;100.00;47840.06;5011922;28;20405;-82
2022/12/22 04:26:24;;;;;;;156.87;57.50;;;;;;;-141.97;100.00;47822.78;5013136;28;20228;-80
2022/12/22 04:28:51;;;;;;;140.98;51.30;;;;;;;-141.97;100.00;47817.00;5016255;28;20159;-80
2022/12/22 04:31:17;;;;;;;144.73;52.78;;;;;;;-141.97;100.00;47857.38;5012776;28;20167;-82
2022/12/22 04:33:43;;;;;;;132.77;50.75;;;;;;;-141.97;100.00;47820.84;5012361;28;20170;-81
2022/12/22 04:36:09;;;;;;;138.53;51.87;;;;;;;-141.97;100.00;47830.47;5011310;28;20190;-82
2022/12/22 04:38:35;;;;;;;141.20;52.60;;;;;;;-141.97;100.00;47849.69;5012358;28;20223;-81
2022/12/22 04:41:00;;;;;;;138.32;53.78;;;;;;;-141.97;100.00;47838.16;5011633;28;20463;-81
2022/12/22 04:43:26;;;;;;;145.43;54.33;;;;;;;-141.97;100.00;47820.84;5011903;28;20178;-81
2022/12/22 04:45:54;;;;;;;132.43;48.83;;;;;;;-141.97;100.00;47842.00;5010694;28;20186;-81
2022/12/22 04:48:21;;;;;;;134.90;49.08;;;;;;;-141.97;100.00;47784.34;5011643;28;20159;-81
2022/12/22 04:50:49;;;;;;;135.65;50.70;;;;;;;-141.97;100.00;47861.22;5012001;28;20173;-81
2022/12/22 04:53:15;;;;;;;177.05;61.58;;;;;;;-141.97;100.00;47826.63;5010479;28;20183;-81
2022/12/22 04:56:04;;;;;;;147.70;50.93;;;;;;;-141.97;100.00;47822.78;5011678;28;20205;-81
2022/12/22 04:58:30;;;;;;;143.52;53.47;;;;;;;-141.97;100.00;47826.63;5010930;28;20250;-81
2022/12/22 05:00:55;;;;;;;140.93;49.77;;;;;;;-141.97;100.00;47842.00;5011637;28;20582;-81
2022/12/22 05:03:21;;;;;;;172.43;69.27;;;;;;;-141.97;100.00;47855.44;5011584;28;20161;-81
2022/12/22 05:05:46;;;;;;;149.10;54.97;;;;;;;-141.97;100.00;47761.25;5011782;28;20217;-81
2022/12/22 05:08:12;;;;;;;124.87;42.67;;;;;;;-141.97;100.00;47767.03;5027882;28;20177;-81
2022/12/22 05:10:37;;;;;;;115.77;42.37;;;;;;;-141.97;100.00;47801.63;5015740;28;20353;-81
2022/12/22 05:13:03;;;;;;;130.93;47.50;;;;;;;-141.97;100.00;47805.47;5015560;28;20180;-81
2022/12/22 05:15:31;;;;;;;112.93;41.87;;;;;;;-141.97;100.00;47849.69;5015525;28;20167;-81
2022/12/22 05:17:58;;;;;;;117.30;40.50;;;;;;;-141.97;100.00;47797.78;5015305;28;20237;-81
2022/12/22 05:20:23;;;;;;;94.90;37.38;;;;;;;-141.97;100.00;47830.47;5009108;28;20253;-81
2022/12/22 05:22:49;;;;;;;101.43;37.97;;;;;;;-141.97;100.00;47843.91;5014880;28;20637;-81
2022/12/22 05:25:15;;;;;;;109.40;39.60;;;;;;;-141.97;100.00;47838.16;5032518;28;20186;-81
2022/12/22 05:27:44;;;;;;;120.20;40.97;;;;;;;-141.97;100.00;47799.72;5032959;28;20600;-81
2022/12/22 05:30:10;;;;;;;114.50;35.70;;;;;;;-141.97;100.00;47845.84;5029308;28;20266;-81
2022/12/22 05:32:36;;;;;;;121.87;44.30;;;;;;;-141.97;100.00;47853.53;5013029;28;20257;-81
2022/12/22 05:35:03;;;;;;;111.47;41.80;;;;;;;-141.97;100.00;47818.94;5012987;28;20506;-80
2022/12/22 05:37:29;;;;;;;110.13;41.83;;;;;;;-141.97;100.00;47838.16;5027102;28;20213;-81
2022/12/22 05:39:55;;;;;;;133.52;48.20;;;;;;;-141.97;100.00;47830.47;5036981;28;20186;-81
2022/12/22 05:42:34;;;;;;;118.10;40.60;;;;;;;-141.97;100.00;47855.44;5033542;28;20316;-82
2022/12/22 05:45:32;;;;;;;181.50;61.85;;;;;;;-141.97;100.00;47845.84;5031672;28;20274;-83
2022/12/22 05:47:57;;;;;;;143.82;52.65;;;;;;;-141.97;100.00;47817.00;4935645;29;20909;-81
2022/12/22 05:50:25;;;;;;;211.53;71.43;;;;;;;-141.97;100.00;47807.41;4951358;29;20185;-82
2022/12/22 05:52:50;;;;;;;151.90;53.28;;;;;;;-141.97;100.00;47828.53;4951608;29;20228;-80
2022/12/22 05:55:16;;;;;;;196.97;75.67;;;;;;;-141.97;100.00;47830.47;4951559;29;20192;-80
2022/12/22 05:57:42;;;;;;;168.67;66.33;;;;;;;-141.97;100.00;47834.31;4950562;29;20697;-80
2022/12/22 06:00:11;;;;;;;184.43;69.78;;;;;;;-141.97;100.00;47838.16;4950804;29;20189;-79
2022/12/22 06:02:37;;;;;;;138.65;52.33;;;;;;;-141.97;100.00;47805.47;4951421;29;20689;-80
2022/12/22 06:05:03;;;;;;;153.53;56.33;;;;;;;-141.97;100.00;47830.47;4951596;29;20197;-83
2022/12/22 06:07:28;;;;;;;173.13;65.57;;;;;;;-141.97;100.00;47855.44;4953139;29;20731;-80
2022/12/22 06:09:53;;;;;;;179.63;67.97;;;;;;;-141.97;100.00;47849.69;4968309;29;20246;-79
2022/12/22 06:12:19;;;;;;;141.87;53.43;;;;;;;-141.97;100.00;47849.69;4951789;29;20212;-79
2022/12/22 06:14:44;;;;;;;132.27;50.30;;;;;;;-141.97;100.00;47853.53;4951284;29;20672;-82
2022/12/22 06:17:09;;;;;;;126.07;48.00;;;;;;;-141.97;100.00;47826.63;4951707;29;20213;-80
2022/12/22 06:19:35;;;;;;;121.93;45.93;;;;;;;-141.97;100.00;47853.53;4941013;28;20244;-81
2022/12/22 06:22:00;;;;;;;152.40;51.87;;;;;;;-141.97;100.00;47784.34;4951318;29;20189;-79
2022/12/22 06:24:26;;;;;;;114.40;44.87;;;;;;;-141.97;100.00;47815.09;5004789;28;20187;-82
2022/12/22 06:26:51;;;;;;;118.33;47.53;;;;;;;-141.97;100.00;47843.91;5010799;28;20611;-80
2022/12/22 06:29:17;;;;;;;152.23;61.80;;;;;;;-141.97;100.00;47866.97;5012204;28;20193;-81
2022/12/22 06:31:42;;;;;;;178.07;65.93;;;;;;;-141.97;100.00;47849.69;5012113;28;20202;-81
2022/12/22 06:34:11;;;;;;;161.87;61.33;;;;;;;-141.97;92.27;47828.53;5011540;28;20214;-81
2022/12/22 06:36:37;;;;;;;170.05;57.58;;;;;;;-141.97;88.21;47886.22;5010993;28;20236;-80
2022/12/22 06:39:04;;;;;;;118.88;47.28;;;;;;;-141.97;85.53;47878.53;5011985;28;20818;-82
2022/12/22 06:44:13;;;;;;;171.27;64.43;;;;;;;-141.97;88.15;47853.53;5011891;28;20193;-81
2022/12/22 06:46:39;;;;;;;141.20;52.50;;;;;;;-141.97;89.75;47840.06;5011156;28;20182;-81
2022/12/22 06:49:04;;;;;;;116.17;46.30;;;;;;;-141.97;89.41;47866.97;5011707;28;20245;-81
2022/12/22 06:51:30;;;;;;;87.20;35.90;;;;;;;-141.97;89.58;47853.53;5012950;28;20182;-81
2022/12/22 06:53:55;;;;;;;102.40;39.70;;;;;;;-141.97;90.30;47826.63;5012648;28;20573;-81
2022/12/22 06:56:20;;;;;;;113.00;42.90;;;;;;;-141.97;91.48;47865.06;5011320;28;20194;-81
2022/12/22 06:58:46;;;;;;;114.00;45.03;;;;;;;-141.97;80.03;47857.38;5010938;28;20632;-81
2022/12/22 07:01:12;;;;;;;93.23;42.37;;;;;;;-141.97;67.10;47834.31;5011919;28;20187;-81
2022/12/22 07:03:37;;;;;;;84.60;38.37;;;;;;;-141.97;59.82;47834.31;5019194;28;20265;-82
2022/12/22 07:06:03;;;;;;;67.27;31.33;;;;;;;-141.97;54.88;47843.91;5021881;28;20186;-82
2022/12/22 07:08:28;;;;;;;64.93;31.97;;;;;;;-141.97;51.86;47870.81;5017971;28;20210;-81
2022/12/22 07:10:56;;;;;;;61.70;31.90;;;;;;;-141.97;49.36;47849.69;5014223;28;20190;-83
2022/12/22 07:13:27;;;;;;;202.27;68.00;;;;;;;-141.97;49.71;47861.22;5028432;28;20221;-84
2022/12/22 07:15:53;;;;;;;68.13;35.47;;;;;;;-141.97;50.47;47845.84;5011463;28;20516;-83
2022/12/22 07:18:19;;;;;;;51.27;26.03;;;;;;;-141.97;48.72;47857.38;5013902;28;20588;-83
2022/12/22 07:20:45;;;;;;;70.80;33.73;;;;;;;-141.97;48.05;47853.53;5026660;28;20240;-82
2022/12/22 07:23:11;;;;;;;76.33;37.80;;;;;;;-141.97;46.46;47857.38;5041135;28;20663;-83
2022/12/22 07:25:36;;;;;;;65.20;29.77;;;;;;;-141.97;49.51;47818.94;5036395;28;20186;-81
2022/12/22 07:28:02;;;;;;;75.87;33.27;;;;;;;-141.97;54.63;47838.16;5013417;28;20182;-83
2022/12/22 07:30:27;;;;;;;74.67;32.50;;;;;;;-141.97;55.90;47830.47;5011639;28;20193;-83
2022/12/22 07:32:53;;;;;;;60.53;29.53;;;;;;;-141.97;58.21;47809.31;5012210;28;20193;-84
2022/12/22 07:35:18;;;;;;;57.37;28.50;;;;;;;-141.97;63.57;47861.22;5011611;28;20187;-84
2022/12/22 07:37:43;;;;;;;50.73;26.20;;;;;;;-141.97;65.01;47822.78;5011642;28;20710;-82
2022/12/22 07:40:09;;;;;;;57.97;28.10;;;;;;;-141.97;66.22;47849.69;5010671;28;20270;-82
2022/12/22 07:42:43;;;;;;;54.13;26.17;;;;;;;-141.97;66.47;47836.22;5011504;28;20183;-83
2022/12/22 07:45:11;;;;;;;81.00;35.70;;;;;;;-141.97;67.12;47859.28;5015672;28;20185;-84
2022/12/22 07:47:36;;;;;;;92.63;45.63;;;;;;;-141.97;66.32;47838.16;5017439;28;20443;-83
2022/12/22 07:52:46;;;;;;;72.10;33.03;;;;;;;-141.97;65.41;47853.53;5015380;28;20184;-82
2022/12/22 07:55:12;;;;;;;86.40;39.67;;;;;;;-141.97;65.57;47811.25;5011459;28;20512;-82
2022/12/22 07:57:38;;;;;;;86.53;35.33;;;;;;;-141.97;65.77;47834.31;5010790;28;20206;-82
2022/12/22 08:00:04;;;;;;;59.77;29.13;;;;;;;-141.97;65.84;47820.84;5011837;28;20513;-82
2022/12/22 08:02:29;;;;;;;57.17;27.47;;;;;;;-141.97;65.03;47842.00;5012706;28;20745;-84
2022/12/22 08:04:55;;;;;;;50.70;24.20;;;;;;;-141.97;63.80;47842.00;5052428;28;20451;-82
2022/12/22 08:07:20;;;;;;;57.17;29.37;;;;;;;-141.97;63.01;47830.47;5051606;28;20181;-82
2022/12/22 08:09:45;;;;;;;69.50;34.50;;;;;;;-141.97;63.13;47834.31;5049127;28;20215;-82
2022/12/22 08:12:11;;;;;;;76.70;36.00;;;;;;;-141.97;62.39;47822.78;5038491;28;20186;-83
2022/12/22 08:14:36;;;;;;;72.97;33.37;;;;;;;-141.97;62.38;47834.31;5033362;28;20262;-83
2022/12/22 08:17:01;;;;;;;80.87;38.90;;;;;;;-141.97;61.64;47820.84;5050202;28;20931;-84
2022/12/22 08:19:27;;;;;;;85.37;39.90;;;;;;;-141.97;61.85;47792.03;5039191;28;20240;-82
2022/12/22 08:21:52;;;;;;;71.60;34.37;;;;;;;-141.97;62.08;47851.59;5042265;28;20185;-81
2022/12/22 08:24:18;;;;;;;59.27;28.03;;;;;;;-141.97;62.68;47809.31;5029974;28;20761;-82
2022/12/22 08:26:47;;;;;;;60.90;28.90;;;;;;;-141.97;61.68;47809.31;5028628;28;20201;-83
2022/12/22 08:29:15;;;;;;;54.93;26.50;;;;;;;-141.97;61.48;47872.75;5022690;28;20207;-81
2022/12/22 08:31:41;;;;;;;54.30;26.83;;;;;;;-141.97;61.83;47863.13;5009722;28;20983;-83
2022/12/22 08:34:09;;;;;;;51.23;24.27;;;;;;;-141.97;60.75;47830.47;5009628;28;20455;-83
2022/12/22 08:36:39;;;;;;;84.73;38.67;;;;;;;-141.97;62.37;47818.94;5009565;28;20197;-82
2022/12/22 08:39:05;;;;;;;99.33;43.43;;;;;;;-141.97;62.00;47853.53;5019789;28;20489;-80
2022/12/22 08:41:50;;;;;;;80.87;35.97;;;;;;;-141.97;61.64;47874.69;5015092;28;21037;-82
2022/12/22 08:44:22;;;;;;;87.07;39.23;;;;;;;-141.97;60.46;47803.56;5009147;28;20472;-80
2022/12/22 08:46:48;;;;;;;67.37;33.17;;;;;;;-141.97;59.60;47824.69;5009976;28;20429;-82
2022/12/22 08:49:14;;;;;;;74.27;34.90;;;;;;;-141.97;59.34;47847.75;5008864;28;20466;-81
2022/12/22 08:51:39;;;;;;;63.37;31.23;;;;;;;-141.97;59.25;47845.84;5008109;28;20468;-81
2022/12/22 08:54:05;;;;;;;73.13;34.50;;;;;;;-141.97;58.13;47853.53;5008106;28;20194;-82
2022/12/22 08:56:30;;;;;;;99.27;42.67;;;;;;;-141.97;57.48;47857.38;5007231;28;20187;-82
2022/12/22 08:58:56;;;;;;;111.70;50.23;;;;;;;-141.97;56.99;47834.31;5008843;28;20217;-81
2022/12/22 09:01:22;;;;;;;106.97;49.70;;;;;;;-141.97;56.50;47822.78;5009524;28;20190;-81
2022/12/22 09:03:53;;;;;;;106.43;46.53;;;;;;;-141.97;56.66;47834.31;5008896;28;20179;-83
2022/12/22 09:06:20;;;;;;;116.37;52.97;;;;;;;-141.97;55.99;47809.31;5009468;28;20182;-82
2022/12/22 09:08:46;;;;;;;103.70;48.40;;;;;;;-141.97;57.08;47840.06;5009720;28;20421;-81
2022/12/22 09:11:11;;;;;;;90.93;43.23;;;;;;;-141.97;56.94;47847.75;5009250;28;20649;-82
2022/12/22 09:13:37;;;;;;;103.93;42.47;;;;;;;-141.97;55.90;47907.34;5009210;28;20445;-82
2022/12/22 09:16:06;;;;;;;79.17;37.43;;;;;;;-141.97;55.36;47865.06;5009462;28;20190;-82
2022/12/22 09:18:32;;;;;;;83.67;35.87;;;;;;;-141.97;54.79;47845.84;5009459;28;20613;-83
2022/12/22 09:20:58;;;;;;;83.33;38.67;;;;;;;-141.97;54.83;47870.81;4997858;28;20223;-85
2022/12/22 09:23:24;;;;;;;71.83;36.60;;;;;;;-141.97;54.39;47818.94;5009681;28;20182;-82
2022/12/22 09:25:49;;;;;;;81.60;39.23;;;;;;;-141.97;53.27;47811.25;5011016;28;20185;-83
2022/12/22 09:28:15;;;;;;;96.23;43.00;;;;;;;-141.97;52.53;47826.63;5012886;28;20519;-84
2022/12/22 09:30:40;;;;;;;80.20;36.10;;;;;;;-141.97;52.75;47838.16;5008942;28;20210;-82
2022/12/22 09:33:05;;;;;;;71.03;32.80;;;;;;;-141.97;52.75;47842.00;5008822;28;20187;-83
2022/12/22 09:35:31;;;;;;;68.77;33.43;;;;;;;-141.97;52.33;47801.63;5008018;28;20269;-83
2022/12/22 09:37:56;;;;;;;84.77;37.30;;;;;;;-141.97;53.12;47834.31;5008504;28;20226;-83
2022/12/22 09:40:23;;;;;;;97.67;47.90;;;;;;;-141.97;52.70;47795.88;5016490;28;20192;-84
2022/12/22 09:42:49;;;;;;;88.37;39.63;;;;;;;-141.97;51.61;47815.09;5035656;28;20657;-84
2022/12/22 09:45:19;;;;;;;95.10;43.17;;;;;;;-141.97;52.33;47817.00;5028451;28;20189;-82
2022/12/22 09:47:52;;;;;;;90.30;43.10;;;;;;;-141.97;51.76;47807.41;5028501;28;20174;-80
2022/12/22 09:50:22;;;;;;;99.47;42.57;;;;;;;-141.97;51.17;47822.78;5027990;28;20188;-83
2022/12/22 09:53:12;;;;;;;80.30;40.00;;;;;;;-141.97;52.65;47861.22;5028581;28;20657;-83
2022/12/22 09:55:46;;;;;;;87.23;38.30;;;;;;;-141.97;53.66;47838.16;5031431;28;20269;-82
2022/12/22 09:58:16;;;;;;;86.43;42.30;;;;;;;-141.97;52.72;47780.47;5032397;28;20289;-83
2022/12/22 10:00:42;;;;;;;94.47;40.80;;;;;;;-141.97;51.85;47832.38;5032484;28;20209;-83
2022/12/22 10:03:34;;;;;;;78.40;39.20;;;;;;;-141.97;52.01;47830.47;5018382;28;20262;-82
2022/12/22 10:06:19;;;;;;;83.47;39.20;;;;;;;-141.97;52.07;47838.16;5012045;28;20186;-82
2022/12/22 10:08:45;;;;;;;75.20;36.87;;;;;;;-141.97;51.10;47801.63;5010420;28;20190;-82
2022/12/22 10:11:16;;;;;;;73.87;35.23;;;;;;;-141.97;51.25;47822.78;5012047;28;20540;-82
2022/12/22 10:13:42;;;;;;;74.90;36.37;;;;;;;-141.97;50.69;47832.38;5012167;28;20253;-82
2022/12/22 10:16:23;;;;;;;70.97;35.80;;;;;;;-141.97;50.09;47818.94;5011626;28;20182;-83
2022/12/22 10:19:15;;;;;;;75.20;34.97;;;;;;;-141.97;50.80;47815.09;5004768;28;20588;-81
2022/12/22 10:21:41;;;;;;;78.57;35.60;;;;;;;-141.97;50.43;47811.25;4952351;29;20555;-82
2022/12/22 10:24:26;;;;;;;68.27;34.87;;;;;;;-141.97;49.74;47815.09;4952252;29;20567;-81
2022/12/22 10:26:59;;;;;;;68.10;34.97;;;;;;;-141.97;50.11;47826.63;4951682;29;20192;-82
2022/12/22 10:29:25;;;;;;;67.73;34.67;;;;;;;-141.97;50.03;47811.25;4950909;29;20284;-82
2022/12/22 10:31:58;;;;;;;75.67;34.67;;;;;;;-141.97;48.93;47842.00;4950565;29;20188;-82
2022/12/22 10:34:23;;;;;;;68.57;35.10;;;;;;;-141.97;49.83;47803.56;4951270;29;20251;-82
2022/12/22 10:36:52;;;;;;;75.17;34.70;;;;;;;-141.97;49.56;47830.47;4947612;29;20225;-82
2022/12/22 10:39:24;;;;;;;78.43;40.03;;;;;;;-141.97;49.71;47811.25;4931452;29;20256;-82
2022/12/22 10:41:53;;;;;;;75.93;36.83;;;;;;;-141.97;49.32;47799.72;4931565;29;20650;-81
2022/12/22 10:44:27;;;;;;;74.93;34.93;;;;;;;-141.97;49.83;47830.47;4931454;29;20185;-82
2022/12/22 10:46:55;;;;;;;75.47;36.57;;;;;;;-141.97;49.79;47811.25;4931354;29;20285;-83
2022/12/22 10:49:23;;;;;;;88.43;38.70;;;;;;;-141.97;49.71;47799.72;4931466;29;20193;-82
2022/12/22 10:52:20;;;;;;;99.20;47.90;;;;;;;-141.97;49.58;47836.22;4931649;29;20635;-81
2022/12/22 10:54:46;;;;;;;88.90;43.90;;;;;;;-141.97;49.19;47822.78;4911989;29;20220;-81
2022/12/22 10:57:15;;;;;;;90.97;41.43;;;;;;;-141.97;49.13;47811.25;4912180;29;20269;-82
2022/12/22 11:00:01;;;;;;;82.73;41.33;;;;;;;-141.97;48.40;47807.41;4950413;29;20224;-81
2022/12/22 11:02:38;;;;;;;99.57;42.80;;;;;;;-141.97;48.73;47822.78;4952115;29;20933;-80
2022/12/22 11:05:06;;;;;;;94.83;42.40;;;;;;;-141.97;48.76;47824.69;4938824;29;20205;-81
2022/12/22 11:07:34;;;;;;;91.93;41.77;;;;;;;-141.97;49.16;47811.25;4942781;29;20225;-81
2022/12/22 11:09:59;;;;;;;86.47;39.07;;;;;;;-141.97;49.10;47822.78;4939292;29;20192;-81
2022/12/22 11:12:27;;;;;;;69.67;34.87;;;;;;;-141.97;48.43;47805.47;4931655;29;20201;-80
2022/12/22 11:15:00;;;;;;;74.60;35.43;;;;;;;-141.97;48.84;47790.09;4931810;29;20192;-83
2022/12/22 11:17:29;;;;;;;71.27;36.30;;;;;;;-141.97;48.91;47772.78;4933018;29;20224;-83
2022/12/22 11:20:19;;;;;;;81.97;41.43;;;;;;;-141.97;49.03;47778.56;4920998;29;20742;-83
2022/12/22 11:23:01;;;;;;;80.53;39.03;;;;;;;-141.97;49.33;47820.84;4932579;29;20190;-85
2022/12/22 11:25:33;;;;;;;74.40;38.00;;;;;;;-141.97;48.82;47815.09;4932695;29;20213;-82
2022/12/22 11:28:07;;;;;;;82.53;37.50;;;;;;;-141.97;48.90;47786.25;4932326;29;20870;-82
2022/12/22 11:30:40;;;;;;;80.63;39.03;;;;;;;-141.97;48.58;47843.91;4932974;28;20235;-83
2022/12/22 11:33:14;;;;;;;83.67;42.80;;;;;;;-141.97;49.05;47807.41;4971716;28;20267;-83
2022/12/22 11:35:54;;;;;;;83.43;42.13;;;;;;;-141.97;50.46;47768.94;4989661;28;20230;-84
2022/12/22 11:38:44;;;;;;;87.40;44.43;;;;;;;-141.97;50.17;47797.78;5023275;28;20225;-82
2022/12/22 11:41:33;;;;;;;75.53;40.37;;;;;;;-141.97;50.51;47853.53;5030850;28;20243;-81
2022/12/22 11:44:25;;;;;;;95.97;44.87;;;;;;;-141.97;50.43;47845.84;5025918;28;20210;-83
2022/12/22 11:47:00;;;;;;;82.53;43.00;;;;;;;-141.97;50.08;47845.84;5011651;28;20197;-80
2022/12/22 11:49:40;;;;;;;76.33;37.53;;;;;;;-141.97;50.04;47830.47;5010892;28;20298;-82
2022/12/22 11:52:19;;;;;;;78.03;38.53;;;;;;;-141.97;50.04;47836.22;5010360;28;20178;-81
2022/12/22 11:55:19;;;;;;;72.30;37.27;;;;;;;-141.97;49.36;47845.84;5010091;28;20179;-82
2022/12/22 11:58:14;;;;;;;80.20;38.53;;;;;;;-141.97;49.29;47826.63;4971256;28;20199;-83
2022/12/22 12:00:48;;;;;;;77.27;38.53;;;;;;;-141.97;49.42;47847.75;4976775;28;20200;-84
2022/12/22 12:03:51;;;;;;;88.80;43.17;;;;;;;-141.97;49.92;47826.63;4970424;28;20191;-83
2022/12/22 12:06:19;;;;;;;93.93;45.27;;;;;;;-141.97;51.30;47834.31;4969414;28;20314;-85
2022/12/22 12:09:26;;;;;;;84.43;40.60;;;;;;;-141.97;52.24;47822.78;4969100;28;20192;-83
2022/12/22 12:11:57;;;;;;;74.33;35.53;;;;;;;-141.97;52.69;47811.25;4930190;29;20287;-84
2022/12/22 12:14:37;;;;;;;77.10;34.70;;;;;;;-141.97;52.85;47826.63;4927986;29;20260;-83
2022/12/22 12:17:28;;;;;;;63.40;32.07;;;;;;;-141.97;52.69;47793.94;4909861;29;20212;-84
2022/12/22 12:19:53;;;;;;;58.87;28.20;;;;;;;-141.97;51.44;47795.88;4903730;29;20254;-84
2022/12/22 12:22:41;;;;;;;49.60;26.97;;;;;;;-141.97;51.63;47830.47;4896597;29;20206;-85
2022/12/22 12:25:21;;;;;;;53.33;25.23;;;;;;;-141.97;51.95;47849.69;4912401;29;20213;-85
2022/12/22 12:27:53;;;;;;;47.67;23.87;;;;;;;-141.97;51.88;47803.56;4913294;29;20201;-85
2022/12/22 12:30:20;;;;;;;57.47;26.20;;;;;;;-141.97;51.81;47842.00;4912637;29;20264;-84
2022/12/22 12:33:05;;;;;;;49.63;24.33;;;;;;;-141.97;51.01;47807.41;4913174;29;20185;-83
2022/12/22 12:35:45;;;;;;;42.13;22.93;;;;;;;-141.97;50.67;47818.94;4937074;29;20201;-84
2022/12/22 12:38:36;;;;;;;40.27;22.07;;;;;;;-141.97;50.09;47809.31;4931720;29;20232;-84
2022/12/22 12:41:28;;;;;;;50.40;24.20;;;;;;;-141.97;50.32;47826.63;4935811;29;20201;-83
2022/12/22 12:43:54;;;;;;;45.27;23.80;;;;;;;-141.97;50.99;47830.47;4917077;29;20304;-84
2022/12/22 12:46:49;;;;;;;44.00;23.70;;;;;;;-141.97;50.78;47795.88;4913642;29;20291;-84
2022/12/22 12:49:37;;;;;;;44.30;23.53;;;;;;;-141.97;50.16;47799.72;4941460;29;20296;-84
2022/12/22 12:52:10;;;;;;;42.63;23.57;;;;;;;-141.97;50.03;47803.56;4912727;29;20538;-84
2022/12/22 12:54:37;;;;;;;44.50;23.97;;;;;;;-141.97;49.45;47799.72;4923611;29;20206;-84
2022/12/22 12:57:21;;;;;;;38.57;21.03;;;;;;;-141.97;49.60;47861.22;4912414;29;20232;-83
2022/12/22 12:59:48;;;;;;;40.63;22.17;;;;;;;-141.97;49.27;47803.56;4912327;29;20221;-84
2022/12/22 13:02:54;;;;;;;37.33;21.33;;;;;;;-141.97;48.78;47828.53;4912134;29;20194;-84
2022/12/22 13:05:46;;;;;;;38.43;20.70;;;;;;;-141.97;48.93;47847.75;4874898;29;20680;-84
2022/12/22 13:08:14;;;;;;;37.20;21.97;;;;;;;-141.97;49.01;47778.56;4875038;29;20269;-84
2022/12/22 13:11:09;;;;;;;40.87;21.60;;;;;;;-141.97;49.00;47786.25;4875794;29;20581;-84
2022/12/22 13:13:34;;;;;;;38.17;21.33;;;;;;;-141.97;49.86;47809.31;4857292;29;20188;-85
2022/12/22 13:15:59;;;;;;;38.30;21.83;;;;;;;-141.97;49.85;47805.47;4870258;29;20197;-85
2022/12/22 13:18:25;;;;;;;42.77;23.20;;;;;;;-141.97;49.79;47784.34;4875153;29;20215;-85
2022/12/22 13:21:21;;;;;;;39.63;22.70;;;;;;;-141.97;48.91;47817.00;4876457;29;20243;-85
2022/12/22 13:24:08;;;;;;;44.63;24.57;;;;;;;-141.97;49.50;47817.00;4893383;29;20187;-86
2022/12/22 13:26:36;;;;;;;44.90;25.00;;;;;;;-141.97;50.10;47822.78;4876170;29;20665;-84
2022/12/22 13:29:02;;;;;;;41.50;24.60;;;;;;;-141.97;50.05;47799.72;4903552;29;20744;-85
2022/12/22 13:31:27;;;;;;;53.27;28.23;;;;;;;-141.97;50.04;47865.06;4935861;29;20193;-86
2022/12/22 13:34:05;;;;;;;48.33;26.90;;;;;;;-141.97;49.80;47792.03;4935584;29;20173;-83
2022/12/22 13:36:31;;;;;;;44.47;24.83;;;;;;;-141.97;50.14;47801.63;4957556;29;20208;-84
2022/12/22 13:39:10;;;;;;;46.37;25.63;;;;;;;-141.97;50.21;47799.72;4956307;29;20205;-85
2022/12/22 13:41:40;;;;;;;79.93;37.93;;;;;;;-141.97;49.57;47834.31;4963781;29;20200;-85
2022/12/22 13:44:14;;;;;;;48.60;26.77;;;;;;;-141.97;49.51;47822.78;4962147;29;20715;-83
2022/12/22 13:46:41;;;;;;;49.63;26.00;;;;;;;-141.97;49.87;47803.56;4962289;29;20255;-86
2022/12/22 13:49:12;;;;;;;47.93;25.63;;;;;;;-141.97;49.84;47830.47;4961091;29;20173;-86
2022/12/22 13:51:41;;;;;;;47.23;26.73;;;;;;;-141.97;50.12;47809.31;5025083;28;20245;-86
2022/12/22 13:54:21;;;;;;;49.23;26.43;;;;;;;-141.97;50.46;47788.19;5019338;28;20208;-87
2022/12/22 13:56:58;;;;;;;49.87;26.93;;;;;;;-141.97;51.31;47801.63;5029538;28;20181;-88
2022/12/22 13:59:43;;;;;;;74.63;33.87;;;;;;;-141.97;51.93;47811.25;5053653;28;20194;-87
2022/12/22 14:02:08;;;;;;;73.20;35.00;;;;;;;-141.97;52.34;47761.25;5024496;28;20196;-85
2022/12/22 14:04:39;;;;;;;45.33;23.63;;;;;;;-141.97;52.57;47861.22;5028756;28;20167;-85
2022/12/22 14:07:17;;;;;;;57.47;28.93;;;;;;;-141.97;52.50;47788.19;5014795;28;20182;-85
2022/12/22 14:09:53;;;;;;;46.40;24.87;;;;;;;-141.97;53.29;47778.56;5014599;28;20566;-86
2022/12/22 14:12:23;;;;;;;53.33;29.03;;;;;;;-141.97;53.26;47788.19;5021462;28;20343;-85
2022/12/22 14:14:51;;;;;;;55.70;25.97;;;;;;;-141.97;53.76;47792.03;5039998;28;20551;-85
2022/12/22 14:17:22;;;;;;;52.60;25.13;;;;;;;-141.97;54.16;47788.19;5056765;28;20158;-85
2022/12/22 14:19:51;;;;;;;55.20;25.90;;;;;;;-141.97;54.28;47895.81;5045302;28;20260;-85
2022/12/22 14:22:36;;;;;;;55.43;26.40;;;;;;;-141.97;54.31;47792.03;5044407;28;20167;-85
2022/12/22 14:25:15;;;;;;;52.20;26.83;;;;;;;-141.97;54.83;47815.09;5014640;28;20163;-85
2022/12/22 14:27:53;;;;;;;60.60;30.00;;;;;;;-141.97;54.93;47822.78;5014496;28;20550;-85
2022/12/22 14:30:34;;;;;;;57.73;29.73;;;;;;;-141.97;55.38;47838.16;5016596;28;20154;-85
2022/12/22 14:33:16;;;;;;;63.97;31.17;;;;;;;-141.97;55.51;47834.31;5016934;28;20249;-86
2022/12/22 14:35:41;;;;;;;84.17;38.57;;;;;;;-141.97;55.27;47830.47;5034067;28;20185;-83
2022/12/22 14:38:15;;;;;;;75.17;37.10;;;;;;;-141.97;56.23;47884.28;5035435;28;20234;-85
2022/12/22 14:40:41;;;;;;;77.13;34.17;;;;;;;-141.97;56.43;47784.34;5023376;28;20182;-85
2022/12/22 14:43:16;;;;;;;72.93;32.40;;;;;;;-141.97;57.08;47832.38;5033715;28;20231;-82
2022/12/22 14:45:42;;;;;;;86.03;38.67;;;;;;;-141.97;57.51;47830.47;5033339;28;20177;-83
2022/12/22 14:48:15;;;;;;;101.03;45.83;;;;;;;-141.97;57.55;47734.34;5034268;28;20727;-84
2022/12/22 14:50:48;;;;;;;106.63;49.90;;;;;;;-141.97;58.10;47792.03;5033508;28;20176;-82
2022/12/22 14:53:15;;;;;;;133.40;60.97;;;;;;;-141.97;57.90;47830.47;5032976;28;20170;-83